createdAt,value
2022-11-16T00:01:03.488Z,992.6
2022-11-16T00:02:19.715Z,992.5
2022-11-16T00:03:35.962Z,992.5
2022-11-16T00:04:52.192Z,992.5
2022-11-16T00:06:08.445Z,992.5
2022-11-16T00:07:24.685Z,992.4
2022-11-16T00:08:40.924Z,992.4
2022-11-16T00:09:57.171Z,992.4
2022-11-16T00:11:12.427Z,992.4
2022-11-16T00:12:27.689Z,992.3
2022-11-16T00:13:43.917Z,992.3
2022-11-16T00:15:00.155Z,992.3
2022-11-16T00:16:16.393Z,992.3
2022-11-16T00:17:32.646Z,992.3
2022-11-16T00:18:48.875Z,992.3
2022-11-16T00:20:05.137Z,992.3
2022-11-16T00:21:21.360Z,992.3
2022-11-16T00:22:37.608Z,992.3
2022-11-16T00:23:53.835Z,992.3
2022-11-16T00:25:09.094Z,992.2
2022-11-16T00:26:24.369Z,992.2
2022-11-16T00:27:40.602Z,992.2
2022-11-16T00:28:56.838Z,992.2
2022-11-16T00:30:13.092Z,992.2
2022-11-16T00:31:29.326Z,992.2
2022-11-16T00:32:45.570Z,992.1
2022-11-16T00:34:01.808Z,992.1
2022-11-16T00:35:18.039Z,992.1
2022-11-16T00:36:34.291Z,992.1
2022-11-16T00:37:50.525Z,992
2022-11-16T00:39:06.762Z,992.1
2022-11-16T00:40:23.012Z,992.1
2022-11-16T00:41:39.237Z,992
2022-11-16T00:42:54.484Z,992
2022-11-16T00:44:10.737Z,992
2022-11-16T00:45:26.985Z,992
2022-11-16T00:46:43.222Z,992
2022-11-16T00:47:59.450Z,991.9
2022-11-16T00:49:15.692Z,991.9
2022-11-16T00:50:31.936Z,991.9
2022-11-16T00:51:47.202Z,991.8
2022-11-16T00:53:02.459Z,991.8
2022-11-16T00:54:17.711Z,991.7
2022-11-16T00:55:32.973Z,991.7
2022-11-16T00:56:49.216Z,991.7
2022-11-16T00:58:05.438Z,991.6
2022-11-16T00:59:21.703Z,991.6
2022-11-16T01:00:37.946Z,991.6
2022-11-16T01:01:54.172Z,991.6
2022-11-16T01:03:10.408Z,991.6
2022-11-16T01:04:26.657Z,991.6
2022-11-16T01:05:42.889Z,991.6
2022-11-16T01:06:59.134Z,991.6
2022-11-16T01:08:15.383Z,991.6
2022-11-16T01:09:31.617Z,991.6
2022-11-16T01:10:47.857Z,991.6
2022-11-16T01:12:03.118Z,991.6
2022-11-16T01:13:19.359Z,991.6
2022-11-16T01:14:35.600Z,991.6
2022-11-16T01:15:51.819Z,991.6
2022-11-16T01:17:08.066Z,991.6
2022-11-16T01:18:24.307Z,991.5
2022-11-16T01:19:40.565Z,991.5
2022-11-16T01:20:55.821Z,991.6
2022-11-16T01:22:11.050Z,991.5
2022-11-16T01:23:27.302Z,991.5
2022-11-16T01:24:43.532Z,991.5
2022-11-16T01:25:59.788Z,991.5
2022-11-16T01:27:16.023Z,991.5
2022-11-16T01:28:32.281Z,991.5
2022-11-16T01:29:48.514Z,991.5
2022-11-16T01:31:04.743Z,991.5
2022-11-16T01:32:20.982Z,991.5
2022-11-16T01:33:37.231Z,991.5
2022-11-16T01:34:53.473Z,991.6
2022-11-16T01:36:09.706Z,991.5
2022-11-16T01:37:25.949Z,991.5
2022-11-16T01:38:41.213Z,991.6
2022-11-16T01:39:57.439Z,991.6
2022-11-16T01:41:13.684Z,991.6
2022-11-16T01:42:29.923Z,991.6
2022-11-16T01:43:46.162Z,991.5
2022-11-16T01:45:02.409Z,991.5
2022-11-16T01:46:18.652Z,991.5
2022-11-16T01:47:33.898Z,991.4
2022-11-16T01:48:49.158Z,991.4
2022-11-16T01:50:04.410Z,991.4
2022-11-16T01:51:19.667Z,991.5
2022-11-16T01:52:35.918Z,991.5
2022-11-16T01:53:52.154Z,991.5
2022-11-16T01:55:08.386Z,991.5
2022-11-16T01:56:24.639Z,991.5
2022-11-16T01:57:40.874Z,991.5
2022-11-16T01:58:57.117Z,991.5
2022-11-16T02:00:13.368Z,991.4
2022-11-16T02:01:29.600Z,991.3
2022-11-16T02:02:45.838Z,991.3
2022-11-16T02:04:02.073Z,991.3
2022-11-16T02:05:18.305Z,991.3
2022-11-16T02:06:34.565Z,991.3
2022-11-16T02:07:49.820Z,991.3
2022-11-16T02:09:06.070Z,991.2
2022-11-16T02:10:22.289Z,991.2
2022-11-16T02:11:38.530Z,991.3
2022-11-16T02:12:54.774Z,991.3
2022-11-16T02:14:11.004Z,991.3
2022-11-16T02:15:27.259Z,991.3
2022-11-16T02:16:42.523Z,991.4
2022-11-16T02:17:57.776Z,991.3
2022-11-16T02:19:14.016Z,991.4
2022-11-16T02:20:30.266Z,991.3
2022-11-16T02:21:46.502Z,991.3
2022-11-16T02:23:02.736Z,991.2
2022-11-16T02:24:18.973Z,991.3
2022-11-16T02:25:35.214Z,991.2
2022-11-16T02:26:51.446Z,991.2
2022-11-16T02:28:07.694Z,991.1
2022-11-16T02:29:23.931Z,991.1
2022-11-16T02:30:40.159Z,991.1
2022-11-16T02:31:56.418Z,991.1
2022-11-16T02:33:12.665Z,991.1
2022-11-16T02:34:28.892Z,991.1
2022-11-16T02:35:44.141Z,991.1
2022-11-16T02:37:00.386Z,991.1
2022-11-16T02:38:16.642Z,991.1
2022-11-16T02:39:32.877Z,991
2022-11-16T02:40:49.112Z,991.1
2022-11-16T02:42:05.357Z,991.1
2022-11-16T02:43:20.606Z,991
2022-11-16T02:44:35.863Z,991
2022-11-16T02:45:51.130Z,991
2022-11-16T02:47:06.391Z,991
2022-11-16T02:48:21.646Z,990.9
2022-11-16T02:49:36.886Z,991
2022-11-16T02:50:52.167Z,990.9
2022-11-16T02:52:07.415Z,990.8
2022-11-16T02:53:23.650Z,990.8
2022-11-16T02:54:39.900Z,990.8
2022-11-16T02:55:56.134Z,990.9
2022-11-16T02:57:12.377Z,990.8
2022-11-16T02:58:28.623Z,990.9
2022-11-16T02:59:44.858Z,990.9
2022-11-16T03:01:01.080Z,990.8
2022-11-16T03:02:17.341Z,990.8
2022-11-16T03:03:33.583Z,990.8
2022-11-16T03:04:49.822Z,990.8
2022-11-16T03:06:06.047Z,990.8
2022-11-16T03:07:22.283Z,990.8
2022-11-16T03:08:37.548Z,990.8
2022-11-16T03:09:53.802Z,990.8
2022-11-16T03:11:10.036Z,990.8
2022-11-16T03:12:26.259Z,990.8
2022-11-16T03:13:42.506Z,990.9
2022-11-16T03:14:58.762Z,990.9
2022-11-16T03:16:15.004Z,990.9
2022-11-16T03:17:30.256Z,990.9
2022-11-16T03:18:45.521Z,991
2022-11-16T03:20:01.757Z,990.9
2022-11-16T03:21:17.999Z,990.9
2022-11-16T03:22:34.240Z,991
2022-11-16T03:23:50.482Z,991
2022-11-16T03:25:06.708Z,990.9
2022-11-16T03:26:22.949Z,990.9
2022-11-16T03:27:39.190Z,990.9
2022-11-16T03:28:55.436Z,991
2022-11-16T03:30:11.655Z,991
2022-11-16T03:31:27.912Z,991
2022-11-16T03:32:44.162Z,991
2022-11-16T03:34:00.375Z,991.1
2022-11-16T03:35:15.637Z,991.1
2022-11-16T03:36:31.898Z,991.2
2022-11-16T03:37:48.113Z,991.2
2022-11-16T03:39:04.379Z,991.2
2022-11-16T03:40:20.605Z,991.2
2022-11-16T03:41:36.843Z,991.2
2022-11-16T03:42:53.090Z,991.2
2022-11-16T03:44:08.364Z,991.2
2022-11-16T03:45:23.619Z,991.2
2022-11-16T03:46:38.862Z,991.2
2022-11-16T03:47:54.121Z,991.2
2022-11-16T03:49:09.398Z,991.2
2022-11-16T03:50:24.644Z,991.1
2022-11-16T03:51:40.891Z,991.2
2022-11-16T03:52:57.131Z,991.1
2022-11-16T03:54:13.363Z,991.1
2022-11-16T03:55:29.607Z,991.2
2022-11-16T03:56:45.825Z,991.1
2022-11-16T03:58:02.092Z,991.1
2022-11-16T03:59:18.323Z,991.1
2022-11-16T04:00:34.560Z,991.1
2022-11-16T04:01:50.804Z,991.1
2022-11-16T04:03:07.044Z,991.1
2022-11-16T04:04:23.272Z,991.1
2022-11-16T04:05:39.526Z,991
2022-11-16T04:06:54.781Z,991.1
2022-11-16T04:08:11.034Z,991.1
2022-11-16T04:09:27.247Z,991.1
2022-11-16T04:10:43.508Z,991.1
2022-11-16T04:11:59.741Z,991
2022-11-16T04:13:15.990Z,991
2022-11-16T04:14:32.000Z,991
2022-11-16T04:15:47.468Z,990.9
2022-11-16T04:17:02.738Z,990.9
2022-11-16T04:18:18.015Z,990.9
2022-11-16T04:19:33.244Z,990.9
2022-11-16T04:20:48.519Z,990.9
2022-11-16T04:22:03.753Z,990.9
2022-11-16T04:23:20.017Z,990.8
2022-11-16T04:24:36.259Z,990.9
2022-11-16T04:25:51.520Z,990.9
2022-11-16T04:27:07.762Z,990.9
2022-11-16T04:28:24.008Z,990.9
2022-11-16T04:29:40.216Z,991
2022-11-16T04:30:56.473Z,991
2022-11-16T04:32:12.720Z,991
2022-11-16T04:33:28.956Z,991
2022-11-16T04:34:45.182Z,991.1
2022-11-16T04:36:01.441Z,991.1
2022-11-16T04:37:17.655Z,991.1
2022-11-16T04:38:33.901Z,991.2
2022-11-16T04:39:50.163Z,991.1
2022-11-16T04:41:06.395Z,991.2
2022-11-16T04:42:21.638Z,991.1
2022-11-16T04:43:37.901Z,991.2
2022-11-16T04:44:54.128Z,991.2
2022-11-16T04:46:10.373Z,991.2
2022-11-16T04:47:25.621Z,991.2
2022-11-16T04:48:40.894Z,991.2
2022-11-16T04:49:56.148Z,991.2
2022-11-16T04:51:11.413Z,991.2
2022-11-16T04:52:27.633Z,991.2
2022-11-16T04:53:43.869Z,991.2
2022-11-16T04:55:00.136Z,991.3
2022-11-16T04:56:16.369Z,991.3
2022-11-16T04:57:32.606Z,991.2
2022-11-16T04:58:48.860Z,991.2
2022-11-16T05:00:05.097Z,991.2
2022-11-16T05:01:21.322Z,991.2
2022-11-16T05:02:37.565Z,991.1
2022-11-16T05:03:53.806Z,991.1
2022-11-16T05:05:10.055Z,991.1
2022-11-16T05:06:26.291Z,991.1
2022-11-16T05:07:41.548Z,991.1
2022-11-16T05:08:57.770Z,991.2
2022-11-16T05:10:14.018Z,991.1
2022-11-16T05:11:30.262Z,991.1
2022-11-16T05:12:46.500Z,991.1
2022-11-16T05:14:02.741Z,991.1
2022-11-16T05:15:18.986Z,991.1
2022-11-16T05:16:34.243Z,991.1
2022-11-16T05:17:49.485Z,991.1
2022-11-16T05:19:04.776Z,991
2022-11-16T05:20:20.029Z,991
2022-11-16T05:21:36.273Z,991
2022-11-16T05:22:52.495Z,990.9
2022-11-16T05:24:08.721Z,991
2022-11-16T05:25:24.979Z,991
2022-11-16T05:26:41.231Z,991
2022-11-16T05:27:57.461Z,991
2022-11-16T05:29:13.680Z,991.1
2022-11-16T05:30:29.920Z,991.1
2022-11-16T05:31:46.175Z,991.1
2022-11-16T05:33:02.418Z,991.1
2022-11-16T05:34:18.660Z,991.2
2022-11-16T05:35:34.910Z,991.2
2022-11-16T05:36:50.163Z,991.2
2022-11-16T05:38:06.392Z,991.2
2022-11-16T05:39:22.618Z,991.2
2022-11-16T05:40:38.855Z,991.2
2022-11-16T05:41:55.096Z,991.1
2022-11-16T05:43:11.334Z,991.1
2022-11-16T05:44:27.608Z,991.1
2022-11-16T05:45:42.869Z,991.1
2022-11-16T05:46:58.120Z,991.1
2022-11-16T05:48:13.377Z,991.1
2022-11-16T05:49:28.640Z,991
2022-11-16T05:50:44.872Z,991
2022-11-16T05:52:01.115Z,991.1
2022-11-16T05:53:17.349Z,991.1
2022-11-16T05:54:33.579Z,991
2022-11-16T05:58:22.298Z,991
2022-11-16T05:59:38.539Z,990.9
2022-11-16T06:00:54.784Z,991
2022-11-16T06:09:48.451Z,991
2022-11-16T06:19:58.382Z,991.1
2022-11-16T06:21:14.625Z,991
2022-11-16T06:23:47.090Z,991
2022-11-16T06:25:03.333Z,991.1
2022-11-16T06:27:35.811Z,991.1
2022-11-16T06:28:52.061Z,991.1
2022-11-16T06:30:08.298Z,991.1
2022-11-16T06:31:24.550Z,991.1
2022-11-16T06:32:40.782Z,991.1
2022-11-16T06:33:57.014Z,991.1
2022-11-16T06:36:29.575Z,991.1
2022-11-16T06:37:45.861Z,991.1
2022-11-16T06:39:02.173Z,991.2
2022-11-16T06:41:34.774Z,991.2
2022-11-16T06:44:07.377Z,991.2
2022-11-16T06:46:39.988Z,991.2
2022-11-16T06:47:56.272Z,991.3
2022-11-16T06:49:12.583Z,991.2
2022-11-16T06:50:28.877Z,991.2
2022-11-16T06:53:01.608Z,991.3
2022-11-16T06:54:18.022Z,991.2
2022-11-16T06:56:50.851Z,991.3
2022-11-16T06:58:06.383Z,991.2
2022-11-16T06:59:22.806Z,991.1
2022-11-16T07:00:39.212Z,991.2
2022-11-16T07:01:55.626Z,991.2
2022-11-16T07:03:12.050Z,991.2
2022-11-16T07:04:28.457Z,991.2
2022-11-16T07:05:44.878Z,991.2
2022-11-16T07:07:01.292Z,991.2
2022-11-16T07:08:17.696Z,991.2
2022-11-16T07:09:34.120Z,991.2
2022-11-16T07:12:06.955Z,991.2
2022-11-16T07:13:23.356Z,991.2
2022-11-16T07:14:38.909Z,991.2
2022-11-16T07:17:11.744Z,991.2
2022-11-16T07:18:28.165Z,991.2
2022-11-16T07:19:44.570Z,991.2
2022-11-16T07:22:17.410Z,991.2
2022-11-16T07:23:33.823Z,991.2
2022-11-16T07:24:49.359Z,991.3
2022-11-16T07:26:05.773Z,991.2
2022-11-16T07:27:22.175Z,991.3
2022-11-16T07:28:38.596Z,991.3
2022-11-16T07:29:55.006Z,991.3
2022-11-16T07:31:11.429Z,991.2
2022-11-16T07:32:27.841Z,991.3
2022-11-16T07:33:44.250Z,991.3
2022-11-16T07:35:00.670Z,991.2
2022-11-16T07:37:33.507Z,991.2
2022-11-16T07:38:49.929Z,991.2
2022-11-16T07:40:05.474Z,991.2
2022-11-16T07:41:21.901Z,991.2
2022-11-16T07:42:38.296Z,991.2
2022-11-16T07:43:54.723Z,991.2
2022-11-16T07:45:10.264Z,991.2
2022-11-16T07:46:26.661Z,991.1
2022-11-16T07:47:43.076Z,991.1
2022-11-16T07:48:59.501Z,991.1
2022-11-16T07:50:15.928Z,991.1
2022-11-16T07:51:32.321Z,991.1
2022-11-16T07:52:48.745Z,991.1
2022-11-16T07:54:05.157Z,991
2022-11-16T07:55:21.573Z,991.1
2022-11-16T07:56:37.982Z,991
2022-11-16T07:57:54.397Z,991.1
2022-11-16T07:59:10.811Z,991.1
2022-11-16T08:00:26.371Z,991.1
2022-11-16T08:02:58.336Z,991
2022-11-16T08:04:14.737Z,991
2022-11-16T08:05:31.155Z,991
2022-11-16T08:08:03.997Z,990.9
2022-11-16T08:09:20.408Z,991
2022-11-16T08:10:36.825Z,991
2022-11-16T08:13:09.631Z,990.9
2022-11-16T08:14:26.063Z,990.8
2022-11-16T08:15:42.474Z,990.8
2022-11-16T08:16:58.882Z,990.9
2022-11-16T08:18:15.314Z,990.9
2022-11-16T08:19:30.854Z,990.9
2022-11-16T08:20:47.282Z,990.9
2022-11-16T08:24:36.514Z,990.9
2022-11-16T08:25:52.936Z,990.9
2022-11-16T08:27:08.467Z,990.9
2022-11-16T08:28:24.893Z,990.8
2022-11-16T08:29:41.305Z,990.9
2022-11-16T08:30:57.718Z,990.8
2022-11-16T08:32:14.120Z,990.9
2022-11-16T08:33:30.546Z,990.9
2022-11-16T08:34:46.946Z,990.8
2022-11-16T08:36:03.376Z,990.8
2022-11-16T08:38:36.193Z,990.8
2022-11-16T08:39:52.616Z,990.8
2022-11-16T08:41:09.034Z,990.8
2022-11-16T08:44:58.389Z,990.9
2022-11-16T08:46:14.811Z,990.9
2022-11-16T08:47:31.231Z,990.8
2022-11-16T08:48:46.760Z,990.9
2022-11-16T08:50:03.184Z,990.9
2022-11-16T08:52:36.011Z,990.9
2022-11-16T08:53:52.422Z,990.8
2022-11-16T08:55:08.848Z,990.8
2022-11-16T08:56:25.256Z,990.8
2022-11-16T08:57:41.662Z,990.8
2022-11-16T08:58:58.084Z,990.8
2022-11-16T09:00:14.522Z,990.8
2022-11-16T09:01:30.901Z,990.8
2022-11-16T09:02:47.315Z,990.8
2022-11-16T09:04:03.744Z,990.8
2022-11-16T09:05:20.138Z,990.7
2022-11-16T09:09:09.403Z,990.8
2022-11-16T09:10:25.807Z,990.8
2022-11-16T09:11:42.230Z,990.7
2022-11-16T09:14:15.063Z,990.7
2022-11-16T09:15:31.468Z,990.8
2022-11-16T09:16:47.874Z,990.7
2022-11-16T09:18:03.422Z,990.8
2022-11-16T09:19:19.828Z,990.7
2022-11-16T09:20:36.237Z,990.7
2022-11-16T09:21:52.663Z,990.7
2022-11-16T09:24:25.487Z,990.9
2022-11-16T09:25:41.900Z,990.8
2022-11-16T09:26:58.328Z,990.8
2022-11-16T09:28:14.741Z,990.8
2022-11-16T09:29:31.147Z,990.8
2022-11-16T09:30:47.567Z,990.7
2022-11-16T09:32:03.974Z,990.8
2022-11-16T09:33:20.389Z,990.7
2022-11-16T09:34:36.805Z,990.7
2022-11-16T09:35:53.222Z,990.7
2022-11-16T09:37:09.626Z,990.7
2022-11-16T09:38:26.049Z,990.7
2022-11-16T09:39:42.464Z,990.7
2022-11-16T09:40:58.890Z,990.7
2022-11-16T09:42:15.294Z,990.7
2022-11-16T09:44:48.120Z,990.7
2022-11-16T09:46:04.537Z,990.7
2022-11-16T09:47:20.948Z,990.7
2022-11-16T09:48:37.359Z,990.7
2022-11-16T09:49:53.784Z,990.7
2022-11-16T09:51:10.204Z,990.7
2022-11-16T09:52:25.750Z,990.7
2022-11-16T09:53:42.171Z,990.7
2022-11-16T09:54:58.571Z,990.6
2022-11-16T09:56:15.004Z,990.7
2022-11-16T09:57:31.408Z,990.6
2022-11-16T09:58:46.958Z,990.6
2022-11-16T10:00:03.360Z,990.6
2022-11-16T10:01:19.783Z,990.7
2022-11-16T10:02:36.194Z,990.6
2022-11-16T10:05:09.015Z,990.6
2022-11-16T10:06:25.428Z,990.6
2022-11-16T10:07:41.858Z,990.6
2022-11-16T10:10:14.680Z,990.6
2022-11-16T10:11:31.085Z,990.6
2022-11-16T10:12:46.645Z,990.6
2022-11-16T10:14:03.060Z,990.6
2022-11-16T10:15:19.478Z,990.6
2022-11-16T10:16:35.880Z,990.6
2022-11-16T10:17:52.317Z,990.6
2022-11-16T10:20:25.140Z,990.6
2022-11-16T10:21:41.558Z,990.6
2022-11-16T10:22:57.960Z,990.6
2022-11-16T10:25:30.808Z,990.6
2022-11-16T10:26:47.214Z,990.6
2022-11-16T10:28:02.748Z,990.6
2022-11-16T10:29:19.160Z,990.6
2022-11-16T10:30:35.576Z,990.6
2022-11-16T10:31:51.978Z,990.6
2022-11-16T10:33:08.405Z,990.6
2022-11-16T10:35:41.236Z,990.6
2022-11-16T10:36:57.638Z,990.6
2022-11-16T10:38:14.073Z,990.7
2022-11-16T10:40:46.887Z,990.7
2022-11-16T10:42:03.297Z,990.7
2022-11-16T10:43:19.727Z,990.7
2022-11-16T10:45:52.538Z,990.7
2022-11-16T10:47:08.955Z,990.7
2022-11-16T10:48:24.500Z,990.7
2022-11-16T10:49:40.919Z,990.8
2022-11-16T10:50:57.323Z,990.7
2022-11-16T10:52:13.740Z,990.7
2022-11-16T10:53:30.155Z,990.7
2022-11-16T10:56:02.988Z,990.7
2022-11-16T10:57:19.406Z,990.7
2022-11-16T10:58:35.814Z,990.7
2022-11-16T10:59:52.236Z,990.7
2022-11-16T11:02:25.050Z,990.7
2022-11-16T11:03:41.465Z,990.7
2022-11-16T11:04:56.848Z,990.6
2022-11-16T11:06:13.084Z,990.6
2022-11-16T11:07:28.338Z,990.6
2022-11-16T11:08:44.584Z,990.6
2022-11-16T11:10:00.818Z,990.6
2022-11-16T11:11:17.070Z,990.6
2022-11-16T11:12:33.306Z,990.6
2022-11-16T11:13:49.540Z,990.6
2022-11-16T11:15:05.789Z,990.6
2022-11-16T11:16:22.021Z,990.6
2022-11-16T11:17:37.281Z,990.6
2022-11-16T11:18:53.526Z,990.6
2022-11-16T11:21:25.015Z,990.6
2022-11-16T11:22:41.256Z,990.5
2022-11-16T11:23:57.503Z,990.5
2022-11-16T11:25:13.750Z,990.5
2022-11-16T11:26:29.983Z,990.4
2022-11-16T11:29:02.452Z,990.5
2022-11-16T11:34:07.427Z,990.5
2022-11-16T11:35:23.650Z,990.4
2022-11-16T11:36:39.893Z,990.4
2022-11-16T11:37:56.129Z,990.5
2022-11-16T11:40:28.619Z,990.4
2022-11-16T11:41:44.863Z,990.4
2022-11-16T11:43:01.095Z,990.4
2022-11-16T11:44:17.326Z,990.4
2022-11-16T11:45:33.576Z,990.4
2022-11-16T11:46:49.819Z,990.4
2022-11-16T11:48:06.052Z,990.4
2022-11-16T11:50:38.539Z,990.4
2022-11-16T11:51:54.765Z,990.3
2022-11-16T11:53:11.002Z,990.3
2022-11-16T11:55:43.491Z,990.3
2022-11-16T11:56:59.729Z,990.3
2022-11-16T11:58:14.996Z,990.3
2022-11-16T11:59:30.256Z,990.3
2022-11-16T12:00:46.484Z,990.3
2022-11-16T12:02:02.727Z,990.3
2022-11-16T12:03:18.961Z,990.3
2022-11-16T12:04:35.202Z,990.3
2022-11-16T12:05:51.450Z,990.3
2022-11-16T12:07:07.694Z,990.3
2022-11-16T12:08:23.927Z,990.2
2022-11-16T12:09:40.162Z,990.3
2022-11-16T12:10:56.402Z,990.2
2022-11-16T12:12:11.657Z,990.2
2022-11-16T12:13:26.919Z,990.2
2022-11-16T12:14:43.167Z,990.2
2022-11-16T12:15:59.393Z,990.2
2022-11-16T12:17:15.652Z,990.2
2022-11-16T12:18:31.887Z,990.2
2022-11-16T12:19:48.119Z,990.2
2022-11-16T12:21:04.366Z,990.2
2022-11-16T12:22:20.593Z,990.2
2022-11-16T12:23:36.000Z,990.2
2022-11-16T12:24:53.082Z,990.2
2022-11-16T12:26:08.335Z,990.2
2022-11-16T12:27:23.588Z,990.1
2022-11-16T12:28:39.830Z,990.2
2022-11-16T12:29:56.064Z,990.2
2022-11-16T12:31:12.308Z,990.2
2022-11-16T12:32:28.548Z,990.1
2022-11-16T12:33:44.790Z,990.2
2022-11-16T12:35:01.034Z,990.3
2022-11-16T12:36:17.270Z,990.2
2022-11-16T12:37:33.509Z,990.2
2022-11-16T12:38:49.747Z,990.2
2022-11-16T12:40:05.993Z,990.2
2022-11-16T12:41:22.223Z,990.2
2022-11-16T12:42:38.469Z,990.2
2022-11-16T12:43:53.726Z,990.1
2022-11-16T12:45:09.973Z,990.1
2022-11-16T12:46:26.197Z,990.1
2022-11-16T12:47:42.458Z,990.1
2022-11-16T12:48:58.683Z,990.1
2022-11-16T12:50:14.918Z,990.1
2022-11-16T12:51:31.168Z,990.1
2022-11-16T12:52:46.427Z,990.2
2022-11-16T12:54:01.679Z,990.2
2022-11-16T12:55:16.950Z,990.1
2022-11-16T12:56:32.202Z,990.2
2022-11-16T12:57:48.435Z,990.2
2022-11-16T12:59:04.680Z,990.2
2022-11-16T13:00:20.924Z,990.2
2022-11-16T13:01:37.159Z,990.2
2022-11-16T13:02:53.390Z,990.2
2022-11-16T13:04:08.656Z,990.2
2022-11-16T13:05:24.893Z,990.2
2022-11-16T13:06:41.138Z,990.1
2022-11-16T13:07:57.378Z,990.1
2022-11-16T13:09:13.608Z,990.1
2022-11-16T13:10:29.850Z,990.2
2022-11-16T13:11:46.101Z,990.2
2022-11-16T13:13:02.329Z,990.2
2022-11-16T13:14:18.574Z,990.1
2022-11-16T13:15:34.821Z,990.2
2022-11-16T13:16:51.046Z,990.2
2022-11-16T13:18:07.296Z,990.1
2022-11-16T13:19:23.538Z,990.1
2022-11-16T13:20:38.788Z,990.1
2022-11-16T13:21:54.055Z,990.1
2022-11-16T13:23:09.295Z,990.1
2022-11-16T13:24:25.546Z,990.1
2022-11-16T13:25:41.779Z,990.1
2022-11-16T13:26:58.027Z,990.2
2022-11-16T13:28:14.257Z,990.1
2022-11-16T13:29:30.504Z,990.1
2022-11-16T13:30:46.729Z,990.1
2022-11-16T13:32:02.969Z,990.1
2022-11-16T13:33:19.227Z,990.1
2022-11-16T13:34:35.475Z,990.1
2022-11-16T13:35:51.702Z,990.1
2022-11-16T13:37:07.940Z,990.1
2022-11-16T13:38:24.182Z,990.1
2022-11-16T13:39:39.433Z,990.1
2022-11-16T13:40:55.670Z,990.1
2022-11-16T13:42:11.916Z,990
2022-11-16T13:43:28.162Z,990.1
2022-11-16T13:44:44.392Z,990
2022-11-16T13:46:00.645Z,990.1
2022-11-16T13:47:16.870Z,990
2022-11-16T13:48:32.140Z,990.1
2022-11-16T13:49:47.397Z,990.1
2022-11-16T13:51:03.619Z,990
2022-11-16T13:52:19.868Z,990
2022-11-16T13:53:36.100Z,990
2022-11-16T13:54:52.351Z,990
2022-11-16T13:56:08.582Z,989.9
2022-11-16T13:57:24.832Z,989.9
2022-11-16T13:58:41.065Z,989.9
2022-11-16T13:59:57.307Z,989.9
2022-11-16T14:01:13.543Z,989.9
2022-11-16T14:02:29.782Z,989.9
2022-11-16T14:03:46.027Z,989.9
2022-11-16T14:05:02.261Z,989.9
2022-11-16T14:06:17.518Z,989.9
2022-11-16T14:07:33.764Z,989.9
2022-11-16T14:08:49.993Z,989.9
2022-11-16T14:10:06.248Z,989.9
2022-11-16T14:11:22.491Z,989.9
2022-11-16T14:12:38.730Z,989.9
2022-11-16T14:13:54.961Z,989.9
2022-11-16T14:15:10.221Z,989.9
2022-11-16T14:16:25.483Z,989.9
2022-11-16T14:17:40.753Z,989.9
2022-11-16T14:18:55.997Z,989.9
2022-11-16T14:20:12.231Z,989.9
2022-11-16T14:21:28.476Z,989.9
2022-11-16T14:22:44.704Z,989.9
2022-11-16T14:24:00.965Z,989.9
2022-11-16T14:25:17.198Z,989.9
2022-11-16T14:26:33.446Z,989.9
2022-11-16T14:27:49.676Z,989.9
2022-11-16T14:29:05.913Z,989.9
2022-11-16T14:30:22.168Z,989.9
2022-11-16T14:31:38.395Z,989.8
2022-11-16T14:32:54.639Z,989.8
2022-11-16T14:34:10.881Z,989.9
2022-11-16T14:35:26.135Z,989.8
2022-11-16T14:36:42.372Z,989.8
2022-11-16T14:37:58.619Z,989.9
2022-11-16T14:39:14.839Z,989.8
2022-11-16T14:40:31.085Z,989.8
2022-11-16T14:41:47.338Z,989.9
2022-11-16T14:43:03.572Z,989.9
2022-11-16T14:44:18.833Z,989.9
2022-11-16T14:45:34.077Z,989.9
2022-11-16T14:46:50.319Z,989.8
2022-11-16T14:48:06.552Z,989.8
2022-11-16T14:49:22.805Z,989.8
2022-11-16T14:50:39.057Z,989.8
2022-11-16T14:51:55.286Z,989.9
2022-11-16T14:53:11.533Z,989.8
2022-11-16T14:54:27.767Z,989.8
2022-11-16T14:55:44.005Z,989.8
2022-11-16T14:57:00.245Z,989.8
2022-11-16T14:58:16.482Z,989.8
2022-11-16T14:59:32.732Z,989.8
2022-11-16T15:00:48.950Z,989.7
2022-11-16T15:02:04.217Z,989.8
2022-11-16T15:03:20.472Z,989.7
2022-11-16T15:04:36.700Z,989.7
2022-11-16T15:05:52.941Z,989.7
2022-11-16T15:07:09.192Z,989.8
2022-11-16T15:08:25.411Z,989.7
2022-11-16T15:09:41.664Z,989.7
2022-11-16T15:10:56.926Z,989.7
2022-11-16T15:12:12.173Z,989.7
2022-11-16T15:13:27.447Z,989.8
2022-11-16T15:14:42.704Z,989.8
2022-11-16T15:15:57.947Z,989.8
2022-11-16T15:17:13.198Z,989.7
2022-11-16T15:18:29.453Z,989.7
2022-11-16T15:19:45.684Z,989.8
2022-11-16T15:21:01.924Z,989.7
2022-11-16T15:22:18.163Z,989.7
2022-11-16T15:23:34.398Z,989.7
2022-11-16T15:24:50.650Z,989.7
2022-11-16T15:26:06.880Z,989.6
2022-11-16T15:27:23.123Z,989.7
2022-11-16T15:28:39.363Z,989.7
2022-11-16T15:29:55.608Z,989.7
2022-11-16T15:31:11.852Z,989.7
2022-11-16T15:32:28.092Z,989.6
2022-11-16T15:33:43.328Z,989.7
2022-11-16T15:34:59.581Z,989.7
2022-11-16T15:36:15.817Z,989.7
2022-11-16T15:37:32.057Z,989.7
2022-11-16T15:38:48.312Z,989.7
2022-11-16T15:40:04.541Z,989.7
2022-11-16T15:41:20.778Z,989.7
2022-11-16T15:42:36.052Z,989.6
2022-11-16T15:43:51.296Z,989.6
2022-11-16T15:45:07.535Z,989.6
2022-11-16T15:46:23.783Z,989.6
2022-11-16T15:47:40.032Z,989.6
2022-11-16T15:48:56.260Z,989.6
2022-11-16T15:50:12.493Z,989.6
2022-11-16T15:51:28.737Z,989.7
2022-11-16T15:52:44.958Z,989.7
2022-11-16T15:54:01.215Z,989.7
2022-11-16T15:55:17.453Z,989.7
2022-11-16T15:56:33.699Z,989.6
2022-11-16T15:57:49.948Z,989.7
2022-11-16T15:59:06.178Z,989.7
2022-11-16T16:00:21.435Z,989.6
2022-11-16T16:01:37.677Z,989.6
2022-11-16T16:02:53.920Z,989.7
2022-11-16T16:04:10.134Z,989.6
2022-11-16T16:05:26.403Z,989.6
2022-11-16T16:06:42.629Z,989.6
2022-11-16T16:07:58.878Z,989.6
2022-11-16T16:09:14.116Z,989.6
2022-11-16T16:10:29.392Z,989.6
2022-11-16T16:11:45.638Z,989.6
2022-11-16T16:13:01.882Z,989.6
2022-11-16T16:14:18.103Z,989.7
2022-11-16T16:15:34.358Z,989.6
2022-11-16T16:16:50.570Z,989.6
2022-11-16T16:18:06.829Z,989.7
2022-11-16T16:19:23.063Z,989.7
2022-11-16T16:20:39.312Z,989.7
2022-11-16T16:21:55.550Z,989.6
2022-11-16T16:23:11.784Z,989.7
2022-11-16T16:24:28.036Z,989.7
2022-11-16T16:25:44.267Z,989.6
2022-11-16T16:26:59.522Z,989.6
2022-11-16T16:28:15.764Z,989.6
2022-11-16T16:29:32.000Z,989.6
2022-11-16T16:30:48.239Z,989.5
2022-11-16T16:32:04.478Z,989.5
2022-11-16T16:33:20.720Z,989.6
2022-11-16T16:34:36.965Z,989.5
2022-11-16T16:35:52.220Z,989.5
2022-11-16T16:37:07.485Z,989.6
2022-11-16T16:38:22.739Z,989.6
2022-11-16T16:39:37.995Z,989.6
2022-11-16T16:40:54.217Z,989.6
2022-11-16T16:42:10.476Z,989.6
2022-11-16T16:43:26.730Z,989.6
2022-11-16T16:44:42.941Z,989.6
2022-11-16T16:45:59.201Z,989.6
2022-11-16T16:47:15.448Z,989.6
2022-11-16T16:48:31.673Z,989.6
2022-11-16T16:49:47.918Z,989.6
2022-11-16T16:51:04.156Z,989.6
2022-11-16T16:52:20.407Z,989.6
2022-11-16T16:53:36.615Z,989.7
2022-11-16T16:54:52.884Z,989.7
2022-11-16T16:56:08.126Z,989.7
2022-11-16T16:58:40.615Z,989.7
2022-11-16T16:59:56.858Z,989.8
2022-11-16T17:01:13.094Z,989.8
2022-11-16T17:02:29.344Z,989.8
2022-11-16T17:03:45.583Z,989.8
2022-11-16T17:05:00.835Z,989.7
2022-11-16T17:06:16.095Z,989.7
2022-11-16T17:07:32.326Z,989.7
2022-11-16T17:08:48.576Z,989.8
2022-11-16T17:10:04.785Z,989.7
2022-11-16T17:11:21.028Z,989.7
2022-11-16T17:12:37.293Z,989.7
2022-11-16T17:13:53.529Z,989.8
2022-11-16T17:15:09.769Z,989.7
2022-11-16T17:16:26.012Z,989.7
2022-11-16T17:17:42.242Z,989.7
2022-11-16T17:18:57.514Z,989.7
2022-11-16T17:20:13.726Z,989.7
2022-11-16T17:21:29.981Z,989.7
2022-11-16T17:22:46.222Z,989.6
2022-11-16T17:24:02.462Z,989.7
2022-11-16T17:25:18.711Z,989.7
2022-11-16T17:26:34.957Z,989.7
2022-11-16T17:27:51.189Z,989.7
2022-11-16T17:29:07.424Z,989.6
2022-11-16T17:30:23.669Z,989.7
2022-11-16T17:31:38.940Z,989.6
2022-11-16T17:32:54.181Z,989.7
2022-11-16T17:34:09.432Z,989.7
2022-11-16T17:35:24.714Z,989.7
2022-11-16T17:36:39.975Z,989.7
2022-11-16T17:37:55.228Z,989.8
2022-11-16T17:39:11.455Z,989.7
2022-11-16T17:40:27.693Z,989.7